sensor_id;sensor_type;location;lat;lon;timestamp;P1;durP1;ratioP1;P2;durP2;ratioP2
25758;SDS011;13604;52.496;13.456;2022-08-05T00:00:07;6.55;;;4.07;;
25758;SDS011;13604;52.496;13.456;2022-08-05T00:02:33;5.10;;;3.20;;
25758;SDS011;13604;52.496;13.456;2022-08-05T00:04:58;6.93;;;3.90;;
25758;SDS011;13604;52.496;13.456;2022-08-05T00:07:23;6.35;;;4.13;;
25758;SDS011;13604;52.496;13.456;2022-08-05T00:09:49;3.97;;;3.58;;
25758;SDS011;13604;52.496;13.456;2022-08-05T00:12:14;12.48;;;3.97;;
25758;SDS011;13604;52.496;13.456;2022-08-05T00:14:39;4.25;;;3.83;;
25758;SDS011;13604;52.496;13.456;2022-08-05T00:17:05;5.70;;;3.90;;
25758;SDS011;13604;52.496;13.456;2022-08-05T00:19:30;4.20;;;3.70;;
25758;SDS011;13604;52.496;13.456;2022-08-05T00:21:55;5.53;;;3.97;;
25758;SDS011;13604;52.496;13.456;2022-08-05T00:24:21;5.00;;;3.88;;
25758;SDS011;13604;52.496;13.456;2022-08-05T00:26:46;4.10;;;3.80;;
25758;SDS011;13604;52.496;13.456;2022-08-05T00:29:11;5.32;;;3.90;;
25758;SDS011;13604;52.496;13.456;2022-08-05T00:31:37;4.72;;;3.92;;
25758;SDS011;13604;52.496;13.456;2022-08-05T00:34:02;4.30;;;3.63;;
25758;SDS011;13604;52.496;13.456;2022-08-05T00:36:29;8.82;;;4.38;;
25758;SDS011;13604;52.496;13.456;2022-08-05T00:38:54;4.28;;;3.90;;
25758;SDS011;13604;52.496;13.456;2022-08-05T00:41:27;6.50;;;3.95;;
25758;SDS011;13604;52.496;13.456;2022-08-05T00:43:53;5.93;;;3.88;;
25758;SDS011;13604;52.496;13.456;2022-08-05T00:46:19;5.20;;;4.10;;
25758;SDS011;13604;52.496;13.456;2022-08-05T00:48:44;5.07;;;3.83;;
25758;SDS011;13604;52.496;13.456;2022-08-05T00:51:09;5.22;;;4.10;;
25758;SDS011;13604;52.496;13.456;2022-08-05T00:53:35;5.60;;;4.05;;
25758;SDS011;13604;52.496;13.456;2022-08-05T00:56:00;4.65;;;3.97;;
25758;SDS011;13604;52.496;13.456;2022-08-05T00:58:25;4.18;;;3.78;;
25758;SDS011;13604;52.496;13.456;2022-08-05T01:00:51;7.60;;;4.35;;
25758;SDS011;13604;52.496;13.456;2022-08-05T01:03:16;4.25;;;3.75;;
25758;SDS011;13604;52.496;13.456;2022-08-05T01:05:41;5.70;;;3.92;;
25758;SDS011;13604;52.496;13.456;2022-08-05T01:08:07;6.97;;;4.30;;
25758;SDS011;13604;52.496;13.456;2022-08-05T01:10:34;10.93;;;4.90;;
25758;SDS011;13604;52.496;13.456;2022-08-05T01:13:05;5.78;;;3.88;;
25758;SDS011;13604;52.496;13.456;2022-08-05T01:15:38;7.47;;;4.20;;
25758;SDS011;13604;52.496;13.456;2022-08-05T01:18:08;9.90;;;4.88;;
25758;SDS011;13604;52.496;13.456;2022-08-05T01:20:51;5.80;;;4.55;;
25758;SDS011;13604;52.496;13.456;2022-08-05T01:26:37;5.05;;;4.20;;
25758;SDS011;13604;52.496;13.456;2022-08-05T01:29:24;6.57;;;4.53;;
25758;SDS011;13604;52.496;13.456;2022-08-05T01:31:54;5.53;;;4.50;;
25758;SDS011;13604;52.496;13.456;2022-08-05T01:37:21;6.15;;;4.82;;
25758;SDS011;13604;52.496;13.456;2022-08-05T01:39:50;6.22;;;4.50;;
25758;SDS011;13604;52.496;13.456;2022-08-05T01:42:20;8.15;;;4.70;;
25758;SDS011;13604;52.496;13.456;2022-08-05T01:44:48;5.63;;;4.68;;
25758;SDS011;13604;52.496;13.456;2022-08-05T01:47:15;5.82;;;4.80;;
25758;SDS011;13604;52.496;13.456;2022-08-05T01:49:43;6.03;;;4.60;;
25758;SDS011;13604;52.496;13.456;2022-08-05T01:52:09;6.10;;;5.05;;
25758;SDS011;13604;52.496;13.456;2022-08-05T01:54:42;5.30;;;4.80;;
25758;SDS011;13604;52.496;13.456;2022-08-05T01:57:12;5.68;;;4.93;;
25758;SDS011;13604;52.496;13.456;2022-08-05T01:59:53;6.50;;;5.00;;
25758;SDS011;13604;52.496;13.456;2022-08-05T02:02:22;6.13;;;4.72;;
25758;SDS011;13604;52.496;13.456;2022-08-05T02:04:49;8.40;;;5.28;;
25758;SDS011;13604;52.496;13.456;2022-08-05T02:07:16;8.20;;;5.63;;
25758;SDS011;13604;52.496;13.456;2022-08-05T02:09:42;8.05;;;5.13;;
25758;SDS011;13604;52.496;13.456;2022-08-05T02:12:12;6.28;;;5.22;;
25758;SDS011;13604;52.496;13.456;2022-08-05T02:14:46;6.93;;;5.35;;
25758;SDS011;13604;52.496;13.456;2022-08-05T02:17:18;6.82;;;4.88;;
25758;SDS011;13604;52.496;13.456;2022-08-05T02:19:50;8.57;;;4.82;;
25758;SDS011;13604;52.496;13.456;2022-08-05T02:24:59;11.85;;;5.20;;
25758;SDS011;13604;52.496;13.456;2022-08-05T02:27:29;8.80;;;5.15;;
25758;SDS011;13604;52.496;13.456;2022-08-05T02:29:58;9.98;;;5.05;;
25758;SDS011;13604;52.496;13.456;2022-08-05T02:32:26;8.48;;;4.93;;
25758;SDS011;13604;52.496;13.456;2022-08-05T02:34:55;9.93;;;5.53;;
25758;SDS011;13604;52.496;13.456;2022-08-05T02:37:24;9.43;;;4.97;;
25758;SDS011;13604;52.496;13.456;2022-08-05T02:39:51;8.27;;;5.15;;
25758;SDS011;13604;52.496;13.456;2022-08-05T02:42:17;7.53;;;5.20;;
25758;SDS011;13604;52.496;13.456;2022-08-05T02:44:44;6.25;;;5.00;;
25758;SDS011;13604;52.496;13.456;2022-08-05T02:47:10;6.53;;;5.30;;
25758;SDS011;13604;52.496;13.456;2022-08-05T02:49:39;7.13;;;5.38;;
25758;SDS011;13604;52.496;13.456;2022-08-05T02:52:08;8.70;;;5.20;;
25758;SDS011;13604;52.496;13.456;2022-08-05T02:54:37;9.63;;;5.40;;
25758;SDS011;13604;52.496;13.456;2022-08-05T02:57:09;7.53;;;5.40;;
25758;SDS011;13604;52.496;13.456;2022-08-05T02:59:38;10.23;;;5.30;;
25758;SDS011;13604;52.496;13.456;2022-08-05T03:02:05;11.65;;;5.63;;
25758;SDS011;13604;52.496;13.456;2022-08-05T03:04:31;9.23;;;5.50;;
25758;SDS011;13604;52.496;13.456;2022-08-05T03:06:57;9.57;;;5.20;;
25758;SDS011;13604;52.496;13.456;2022-08-05T03:09:23;8.93;;;5.20;;
25758;SDS011;13604;52.496;13.456;2022-08-05T03:11:48;8.02;;;5.60;;
25758;SDS011;13604;52.496;13.456;2022-08-05T03:14:15;13.02;;;5.30;;
25758;SDS011;13604;52.496;13.456;2022-08-05T03:16:40;9.80;;;5.55;;
25758;SDS011;13604;52.496;13.456;2022-08-05T03:19:05;10.50;;;5.13;;
25758;SDS011;13604;52.496;13.456;2022-08-05T03:21:31;8.43;;;4.72;;
25758;SDS011;13604;52.496;13.456;2022-08-05T03:23:57;9.70;;;5.07;;
25758;SDS011;13604;52.496;13.456;2022-08-05T03:26:23;9.25;;;5.07;;
25758;SDS011;13604;52.496;13.456;2022-08-05T03:28:48;10.27;;;5.05;;
25758;SDS011;13604;52.496;13.456;2022-08-05T03:31:14;6.28;;;4.72;;
25758;SDS011;13604;52.496;13.456;2022-08-05T03:33:39;5.90;;;4.88;;
25758;SDS011;13604;52.496;13.456;2022-08-05T03:36:05;10.43;;;4.70;;
25758;SDS011;13604;52.496;13.456;2022-08-05T03:38:31;13.05;;;4.65;;
25758;SDS011;13604;52.496;13.456;2022-08-05T03:40:56;6.88;;;4.93;;
25758;SDS011;13604;52.496;13.456;2022-08-05T03:43:21;9.32;;;5.05;;
25758;SDS011;13604;52.496;13.456;2022-08-05T03:45:50;4.78;;;4.38;;
25758;SDS011;13604;52.496;13.456;2022-08-05T03:48:16;5.30;;;4.40;;
25758;SDS011;13604;52.496;13.456;2022-08-05T03:53:38;7.47;;;4.82;;
25758;SDS011;13604;52.496;13.456;2022-08-05T03:56:15;6.10;;;4.40;;
25758;SDS011;13604;52.496;13.456;2022-08-05T03:58:47;7.63;;;4.70;;
25758;SDS011;13604;52.496;13.456;2022-08-05T04:01:14;10.98;;;4.72;;
25758;SDS011;13604;52.496;13.456;2022-08-05T04:03:43;7.03;;;4.78;;
25758;SDS011;13604;52.496;13.456;2022-08-05T04:06:11;6.10;;;4.22;;
25758;SDS011;13604;52.496;13.456;2022-08-05T04:08:37;6.47;;;4.60;;
25758;SDS011;13604;52.496;13.456;2022-08-05T04:11:05;6.05;;;4.57;;
25758;SDS011;13604;52.496;13.456;2022-08-05T04:13:31;6.72;;;4.22;;
25758;SDS011;13604;52.496;13.456;2022-08-05T04:15:57;6.53;;;4.22;;
25758;SDS011;13604;52.496;13.456;2022-08-05T04:18:22;8.07;;;4.65;;
25758;SDS011;13604;52.496;13.456;2022-08-05T04:20:54;11.38;;;4.88;;
25758;SDS011;13604;52.496;13.456;2022-08-05T04:23:22;7.82;;;4.50;;
25758;SDS011;13604;52.496;13.456;2022-08-05T04:25:48;6.00;;;4.60;;
25758;SDS011;13604;52.496;13.456;2022-08-05T04:28:14;7.15;;;5.38;;
25758;SDS011;13604;52.496;13.456;2022-08-05T04:30:39;7.35;;;5.22;;
25758;SDS011;13604;52.496;13.456;2022-08-05T04:33:04;6.55;;;4.50;;
25758;SDS011;13604;52.496;13.456;2022-08-05T04:35:30;8.88;;;4.57;;
25758;SDS011;13604;52.496;13.456;2022-08-05T04:37:55;7.20;;;4.65;;
25758;SDS011;13604;52.496;13.456;2022-08-05T04:40:20;10.00;;;5.13;;
25758;SDS011;13604;52.496;13.456;2022-08-05T04:42:45;14.18;;;4.80;;
25758;SDS011;13604;52.496;13.456;2022-08-05T04:45:11;9.85;;;5.10;;
25758;SDS011;13604;52.496;13.456;2022-08-05T04:47:36;10.40;;;4.80;;
25758;SDS011;13604;52.496;13.456;2022-08-05T04:50:01;6.00;;;4.20;;
25758;SDS011;13604;52.496;13.456;2022-08-05T04:52:27;7.25;;;4.93;;
25758;SDS011;13604;52.496;13.456;2022-08-05T04:54:52;14.38;;;4.57;;
25758;SDS011;13604;52.496;13.456;2022-08-05T04:57:17;6.15;;;4.18;;
25758;SDS011;13604;52.496;13.456;2022-08-05T04:59:43;4.45;;;4.05;;
25758;SDS011;13604;52.496;13.456;2022-08-05T05:02:08;9.85;;;4.88;;
25758;SDS011;13604;52.496;13.456;2022-08-05T05:04:33;8.38;;;4.60;;
25758;SDS011;13604;52.496;13.456;2022-08-05T05:06:58;4.95;;;4.38;;
25758;SDS011;13604;52.496;13.456;2022-08-05T05:09:24;8.63;;;4.90;;
25758;SDS011;13604;52.496;13.456;2022-08-05T05:11:49;6.57;;;4.65;;
25758;SDS011;13604;52.496;13.456;2022-08-05T05:14:14;4.68;;;4.28;;
25758;SDS011;13604;52.496;13.456;2022-08-05T05:16:40;8.07;;;4.72;;
25758;SDS011;13604;52.496;13.456;2022-08-05T05:19:05;6.45;;;4.63;;
25758;SDS011;13604;52.496;13.456;2022-08-05T05:21:30;6.80;;;4.63;;
25758;SDS011;13604;52.496;13.456;2022-08-05T05:23:56;6.18;;;4.63;;
25758;SDS011;13604;52.496;13.456;2022-08-05T05:26:21;5.07;;;4.53;;
25758;SDS011;13604;52.496;13.456;2022-08-05T05:28:46;6.35;;;4.63;;
25758;SDS011;13604;52.496;13.456;2022-08-05T05:31:11;6.20;;;4.32;;
25758;SDS011;13604;52.496;13.456;2022-08-05T05:33:37;6.93;;;4.70;;
25758;SDS011;13604;52.496;13.456;2022-08-05T05:36:02;14.25;;;4.70;;
25758;SDS011;13604;52.496;13.456;2022-08-05T05:38:27;10.65;;;4.18;;
25758;SDS011;13604;52.496;13.456;2022-08-05T05:40:56;8.90;;;5.25;;
25758;SDS011;13604;52.496;13.456;2022-08-05T05:43:21;8.93;;;4.95;;
25758;SDS011;13604;52.496;13.456;2022-08-05T05:45:47;11.95;;;4.82;;
25758;SDS011;13604;52.496;13.456;2022-08-05T05:48:12;11.77;;;4.70;;
25758;SDS011;13604;52.496;13.456;2022-08-05T05:50:38;11.55;;;5.05;;
25758;SDS011;13604;52.496;13.456;2022-08-05T05:53:04;5.70;;;4.00;;
25758;SDS011;13604;52.496;13.456;2022-08-05T05:55:30;7.25;;;4.70;;
25758;SDS011;13604;52.496;13.456;2022-08-05T05:57:55;9.10;;;4.60;;
25758;SDS011;13604;52.496;13.456;2022-08-05T06:00:21;8.30;;;5.18;;
25758;SDS011;13604;52.496;13.456;2022-08-05T06:02:47;7.30;;;4.80;;
25758;SDS011;13604;52.496;13.456;2022-08-05T06:05:13;11.23;;;4.60;;
25758;SDS011;13604;52.496;13.456;2022-08-05T06:07:39;7.78;;;4.85;;
25758;SDS011;13604;52.496;13.456;2022-08-05T06:10:06;12.27;;;4.43;;
25758;SDS011;13604;52.496;13.456;2022-08-05T06:12:36;12.45;;;4.45;;
25758;SDS011;13604;52.496;13.456;2022-08-05T06:15:03;7.57;;;4.47;;
25758;SDS011;13604;52.496;13.456;2022-08-05T06:17:29;12.55;;;4.88;;
25758;SDS011;13604;52.496;13.456;2022-08-05T06:19:54;8.68;;;4.68;;
25758;SDS011;13604;52.496;13.456;2022-08-05T06:22:23;11.40;;;4.53;;
25758;SDS011;13604;52.496;13.456;2022-08-05T06:24:50;9.40;;;5.15;;
25758;SDS011;13604;52.496;13.456;2022-08-05T06:27:16;9.55;;;3.80;;
25758;SDS011;13604;52.496;13.456;2022-08-05T06:29:41;9.98;;;3.97;;
25758;SDS011;13604;52.496;13.456;2022-08-05T06:32:07;8.65;;;4.10;;
25758;SDS011;13604;52.496;13.456;2022-08-05T06:34:33;11.85;;;4.28;;
25758;SDS011;13604;52.496;13.456;2022-08-05T06:36:58;12.32;;;3.38;;
25758;SDS011;13604;52.496;13.456;2022-08-05T06:39:24;8.18;;;3.90;;
25758;SDS011;13604;52.496;13.456;2022-08-05T06:41:50;7.70;;;3.72;;
25758;SDS011;13604;52.496;13.456;2022-08-05T06:44:15;7.50;;;3.95;;
25758;SDS011;13604;52.496;13.456;2022-08-05T06:46:40;5.50;;;3.30;;
25758;SDS011;13604;52.496;13.456;2022-08-05T06:49:06;4.07;;;3.08;;
25758;SDS011;13604;52.496;13.456;2022-08-05T06:51:31;8.90;;;3.25;;
25758;SDS011;13604;52.496;13.456;2022-08-05T06:53:57;7.80;;;2.80;;
25758;SDS011;13604;52.496;13.456;2022-08-05T06:56:26;4.65;;;3.42;;
25758;SDS011;13604;52.496;13.456;2022-08-05T06:58:52;12.02;;;3.35;;
25758;SDS011;13604;52.496;13.456;2022-08-05T07:01:17;7.13;;;2.88;;
25758;SDS011;13604;52.496;13.456;2022-08-05T07:03:43;7.40;;;3.15;;
25758;SDS011;13604;52.496;13.456;2022-08-05T07:06:08;9.73;;;3.10;;
25758;SDS011;13604;52.496;13.456;2022-08-05T07:08:33;9.88;;;3.67;;
25758;SDS011;13604;52.496;13.456;2022-08-05T07:10:59;5.00;;;3.20;;
25758;SDS011;13604;52.496;13.456;2022-08-05T07:13:24;4.32;;;3.30;;
25758;SDS011;13604;52.496;13.456;2022-08-05T07:16:08;5.63;;;2.80;;
25758;SDS011;13604;52.496;13.456;2022-08-05T07:18:52;5.38;;;2.97;;
25758;SDS011;13604;52.496;13.456;2022-08-05T07:21:17;4.97;;;2.67;;
25758;SDS011;13604;52.496;13.456;2022-08-05T07:23:43;8.10;;;2.88;;
25758;SDS011;13604;52.496;13.456;2022-08-05T07:26:08;6.40;;;2.85;;
25758;SDS011;13604;52.496;13.456;2022-08-05T07:28:33;8.65;;;2.53;;
25758;SDS011;13604;52.496;13.456;2022-08-05T07:30:59;9.07;;;2.55;;
25758;SDS011;13604;52.496;13.456;2022-08-05T07:33:24;8.35;;;3.25;;
25758;SDS011;13604;52.496;13.456;2022-08-05T07:35:49;4.97;;;2.65;;
25758;SDS011;13604;52.496;13.456;2022-08-05T07:38:15;4.15;;;2.75;;
25758;SDS011;13604;52.496;13.456;2022-08-05T07:40:41;3.83;;;2.40;;
25758;SDS011;13604;52.496;13.456;2022-08-05T07:43:07;7.38;;;2.83;;
25758;SDS011;13604;52.496;13.456;2022-08-05T07:45:33;4.18;;;3.30;;
25758;SDS011;13604;52.496;13.456;2022-08-05T07:47:58;6.38;;;3.13;;
25758;SDS011;13604;52.496;13.456;2022-08-05T07:50:24;3.03;;;2.53;;
25758;SDS011;13604;52.496;13.456;2022-08-05T07:52:49;7.55;;;2.72;;
25758;SDS011;13604;52.496;13.456;2022-08-05T07:55:15;7.18;;;2.67;;
25758;SDS011;13604;52.496;13.456;2022-08-05T07:57:40;7.78;;;2.97;;
25758;SDS011;13604;52.496;13.456;2022-08-05T08:00:06;8.20;;;2.70;;
25758;SDS011;13604;52.496;13.456;2022-08-05T08:02:32;4.22;;;2.30;;
25758;SDS011;13604;52.496;13.456;2022-08-05T08:04:58;4.10;;;2.60;;
25758;SDS011;13604;52.496;13.456;2022-08-05T08:07:23;8.90;;;2.78;;
25758;SDS011;13604;52.496;13.456;2022-08-05T08:09:49;4.70;;;2.50;;
25758;SDS011;13604;52.496;13.456;2022-08-05T08:12:15;3.35;;;2.40;;
25758;SDS011;13604;52.496;13.456;2022-08-05T08:14:41;7.45;;;2.80;;
25758;SDS011;13604;52.496;13.456;2022-08-05T08:17:06;8.50;;;3.30;;
25758;SDS011;13604;52.496;13.456;2022-08-05T08:19:34;6.95;;;2.92;;
25758;SDS011;13604;52.496;13.456;2022-08-05T08:22:00;5.65;;;2.78;;
25758;SDS011;13604;52.496;13.456;2022-08-05T08:24:26;7.03;;;2.95;;
25758;SDS011;13604;52.496;13.456;2022-08-05T08:26:51;5.82;;;2.83;;
25758;SDS011;13604;52.496;13.456;2022-08-05T08:29:16;3.47;;;2.55;;
25758;SDS011;13604;52.496;13.456;2022-08-05T08:31:42;3.03;;;2.45;;
25758;SDS011;13604;52.496;13.456;2022-08-05T08:34:07;5.63;;;2.70;;
25758;SDS011;13604;52.496;13.456;2022-08-05T08:36:32;8.38;;;2.58;;
25758;SDS011;13604;52.496;13.456;2022-08-05T08:38:57;6.18;;;2.65;;
25758;SDS011;13604;52.496;13.456;2022-08-05T08:41:24;7.07;;;2.60;;
25758;SDS011;13604;52.496;13.456;2022-08-05T08:43:51;4.88;;;2.22;;
25758;SDS011;13604;52.496;13.456;2022-08-05T08:46:19;6.10;;;2.67;;
25758;SDS011;13604;52.496;13.456;2022-08-05T08:48:45;4.47;;;2.53;;
25758;SDS011;13604;52.496;13.456;2022-08-05T08:51:13;6.25;;;2.20;;
25758;SDS011;13604;52.496;13.456;2022-08-05T08:53:42;2.50;;;2.22;;
25758;SDS011;13604;52.496;13.456;2022-08-05T08:56:08;3.00;;;2.33;;
25758;SDS011;13604;52.496;13.456;2022-08-05T08:58:34;6.15;;;2.60;;
25758;SDS011;13604;52.496;13.456;2022-08-05T09:00:59;9.25;;;2.58;;
25758;SDS011;13604;52.496;13.456;2022-08-05T09:03:24;7.43;;;2.50;;
25758;SDS011;13604;52.496;13.456;2022-08-05T09:05:54;6.10;;;2.45;;
25758;SDS011;13604;52.496;13.456;2022-08-05T09:08:20;5.72;;;2.30;;
25758;SDS011;13604;52.496;13.456;2022-08-05T09:10:46;4.50;;;2.30;;
25758;SDS011;13604;52.496;13.456;2022-08-05T09:13:12;4.85;;;1.80;;
25758;SDS011;13604;52.496;13.456;2022-08-05T09:15:39;7.57;;;3.05;;
25758;SDS011;13604;52.496;13.456;2022-08-05T09:18:08;5.88;;;2.60;;
25758;SDS011;13604;52.496;13.456;2022-08-05T09:20:34;3.97;;;2.47;;
25758;SDS011;13604;52.496;13.456;2022-08-05T09:23:08;5.10;;;2.35;;
25758;SDS011;13604;52.496;13.456;2022-08-05T09:25:38;4.85;;;2.65;;
25758;SDS011;13604;52.496;13.456;2022-08-05T09:28:14;2.30;;;1.80;;
25758;SDS011;13604;52.496;13.456;2022-08-05T09:30:57;3.92;;;2.70;;
25758;SDS011;13604;52.496;13.456;2022-08-05T09:33:28;6.20;;;2.30;;
25758;SDS011;13604;52.496;13.456;2022-08-05T09:35:59;4.82;;;2.80;;
25758;SDS011;13604;52.496;13.456;2022-08-05T09:38:29;3.47;;;2.65;;
25758;SDS011;13604;52.496;13.456;2022-08-05T09:41:02;6.65;;;2.42;;
25758;SDS011;13604;52.496;13.456;2022-08-05T09:43:32;6.32;;;2.28;;
25758;SDS011;13604;52.496;13.456;2022-08-05T09:45:59;6.45;;;2.60;;
25758;SDS011;13604;52.496;13.456;2022-08-05T09:48:27;4.32;;;2.30;;
25758;SDS011;13604;52.496;13.456;2022-08-05T09:53:30;3.50;;;2.03;;
25758;SDS011;13604;52.496;13.456;2022-08-05T09:56:11;6.03;;;2.40;;
25758;SDS011;13604;52.496;13.456;2022-08-05T09:58:36;3.08;;;2.08;;
25758;SDS011;13604;52.496;13.456;2022-08-05T10:01:03;4.72;;;2.47;;
25758;SDS011;13604;52.496;13.456;2022-08-05T10:03:29;6.47;;;2.72;;
25758;SDS011;13604;52.496;13.456;2022-08-05T10:06:06;6.78;;;2.70;;
25758;SDS011;13604;52.496;13.456;2022-08-05T10:08:35;2.80;;;2.17;;
25758;SDS011;13604;52.496;13.456;2022-08-05T10:11:02;4.00;;;2.55;;
25758;SDS011;13604;52.496;13.456;2022-08-05T10:13:30;7.20;;;2.75;;
25758;SDS011;13604;52.496;13.456;2022-08-05T10:16:00;6.82;;;2.63;;
25758;SDS011;13604;52.496;13.456;2022-08-05T10:18:27;3.25;;;2.60;;
25758;SDS011;13604;52.496;13.456;2022-08-05T10:21:05;3.67;;;2.85;;
25758;SDS011;13604;52.496;13.456;2022-08-05T10:23:35;4.22;;;2.92;;
25758;SDS011;13604;52.496;13.456;2022-08-05T10:26:03;7.25;;;2.75;;
25758;SDS011;13604;52.496;13.456;2022-08-05T10:28:30;3.75;;;2.50;;
25758;SDS011;13604;52.496;13.456;2022-08-05T10:30:56;2.97;;;2.40;;
25758;SDS011;13604;52.496;13.456;2022-08-05T10:33:23;9.55;;;6.32;;
25758;SDS011;13604;52.496;13.456;2022-08-05T10:35:49;3.95;;;2.60;;
25758;SDS011;13604;52.496;13.456;2022-08-05T10:38:17;5.47;;;2.60;;
25758;SDS011;13604;52.496;13.456;2022-08-05T10:46:09;3.28;;;2.45;;
25758;SDS011;13604;52.496;13.456;2022-08-05T10:48:38;4.32;;;2.70;;
25758;SDS011;13604;52.496;13.456;2022-08-05T10:51:14;6.38;;;3.17;;
25758;SDS011;13604;52.496;13.456;2022-08-05T10:53:54;7.10;;;3.45;;
25758;SDS011;13604;52.496;13.456;2022-08-05T10:56:25;3.85;;;2.80;;
25758;SDS011;13604;52.496;13.456;2022-08-05T11:01:16;3.73;;;3.03;;
25758;SDS011;13604;52.496;13.456;2022-08-05T11:04:01;5.20;;;3.22;;
25758;SDS011;13604;52.496;13.456;2022-08-05T11:06:34;5.47;;;3.35;;
25758;SDS011;13604;52.496;13.456;2022-08-05T11:09:20;3.95;;;3.47;;
25758;SDS011;13604;52.496;13.456;2022-08-05T11:11:48;6.50;;;3.70;;
25758;SDS011;13604;52.496;13.456;2022-08-05T11:14:27;5.32;;;3.35;;
25758;SDS011;13604;52.496;13.456;2022-08-05T11:19:49;6.25;;;3.30;;
25758;SDS011;13604;52.496;13.456;2022-08-05T11:31:10;3.15;;;2.03;;
25758;SDS011;13604;52.496;13.456;2022-08-05T11:33:28;1.95;;;1.80;;
25758;SDS011;13604;52.496;13.456;2022-08-05T11:35:59;4.38;;;2.17;;
25758;SDS011;13604;52.496;13.456;2022-08-05T11:41:03;4.60;;;2.00;;
25758;SDS011;13604;52.496;13.456;2022-08-05T11:43:30;3.97;;;1.92;;
25758;SDS011;13604;52.496;13.456;2022-08-05T11:45:56;3.20;;;1.92;;
25758;SDS011;13604;52.496;13.456;2022-08-05T11:48:22;3.90;;;2.00;;
25758;SDS011;13604;52.496;13.456;2022-08-05T11:50:48;2.80;;;1.95;;
25758;SDS011;13604;52.496;13.456;2022-08-05T11:53:14;3.25;;;1.70;;
25758;SDS011;13604;52.496;13.456;2022-08-05T11:55:59;2.80;;;1.90;;
25758;SDS011;13604;52.496;13.456;2022-08-05T11:58:35;3.38;;;1.90;;
25758;SDS011;13604;52.496;13.456;2022-08-05T12:01:06;2.83;;;1.55;;
25758;SDS011;13604;52.496;13.456;2022-08-05T12:03:43;4.50;;;1.90;;
25758;SDS011;13604;52.496;13.456;2022-08-05T12:06:20;2.35;;;1.70;;
25758;SDS011;13604;52.496;13.456;2022-08-05T12:08:47;2.58;;;2.22;;
25758;SDS011;13604;52.496;13.456;2022-08-05T12:11:24;2.67;;;2.00;;
25758;SDS011;13604;52.496;13.456;2022-08-05T12:14:01;3.03;;;2.00;;
25758;SDS011;13604;52.496;13.456;2022-08-05T12:16:31;2.50;;;1.80;;
25758;SDS011;13604;52.496;13.456;2022-08-05T12:18:58;2.15;;;1.77;;
25758;SDS011;13604;52.496;13.456;2022-08-05T12:21:25;2.88;;;2.10;;
25758;SDS011;13604;52.496;13.456;2022-08-05T12:24:06;2.80;;;2.42;;
25758;SDS011;13604;52.496;13.456;2022-08-05T12:26:35;2.85;;;1.90;;
25758;SDS011;13604;52.496;13.456;2022-08-05T12:29:06;3.20;;;2.20;;
25758;SDS011;13604;52.496;13.456;2022-08-05T12:31:34;4.32;;;2.35;;
25758;SDS011;13604;52.496;13.456;2022-08-05T12:34:00;3.28;;;2.15;;
25758;SDS011;13604;52.496;13.456;2022-08-05T12:36:26;2.17;;;1.75;;
25758;SDS011;13604;52.496;13.456;2022-08-05T12:38:52;2.42;;;1.90;;
25758;SDS011;13604;52.496;13.456;2022-08-05T12:41:17;2.90;;;1.85;;
25758;SDS011;13604;52.496;13.456;2022-08-05T12:43:54;1.88;;;1.70;;
25758;SDS011;13604;52.496;13.456;2022-08-05T12:46:21;3.47;;;1.60;;
25758;SDS011;13604;52.496;13.456;2022-08-05T12:54:21;2.92;;;2.20;;
25758;SDS011;13604;52.496;13.456;2022-08-05T12:56:55;2.92;;;2.25;;
25758;SDS011;13604;52.496;13.456;2022-08-05T12:59:24;3.90;;;2.00;;
25758;SDS011;13604;52.496;13.456;2022-08-05T13:01:55;3.30;;;2.20;;
25758;SDS011;13604;52.496;13.456;2022-08-05T13:04:24;7.00;;;2.55;;
25758;SDS011;13604;52.496;13.456;2022-08-05T13:06:52;3.25;;;2.10;;
25758;SDS011;13604;52.496;13.456;2022-08-05T13:09:21;2.53;;;2.20;;
25758;SDS011;13604;52.496;13.456;2022-08-05T13:11:46;3.60;;;2.53;;
25758;SDS011;13604;52.496;13.456;2022-08-05T13:14:15;7.40;;;2.50;;
25758;SDS011;13604;52.496;13.456;2022-08-05T13:16:53;2.53;;;2.20;;
25758;SDS011;13604;52.496;13.456;2022-08-05T13:19:20;4.32;;;2.55;;
25758;SDS011;13604;52.496;13.456;2022-08-05T13:21:47;2.28;;;1.85;;
25758;SDS011;13604;52.496;13.456;2022-08-05T13:24:13;6.43;;;2.80;;
25758;SDS011;13604;52.496;13.456;2022-08-05T13:26:39;3.30;;;2.17;;
25758;SDS011;13604;52.496;13.456;2022-08-05T13:29:04;4.07;;;2.33;;
25758;SDS011;13604;52.496;13.456;2022-08-05T13:31:30;4.45;;;2.40;;
25758;SDS011;13604;52.496;13.456;2022-08-05T13:33:55;5.40;;;2.58;;
25758;SDS011;13604;52.496;13.456;2022-08-05T13:36:20;3.78;;;2.20;;
25758;SDS011;13604;52.496;13.456;2022-08-05T13:38:45;3.35;;;2.15;;
25758;SDS011;13604;52.496;13.456;2022-08-05T13:41:11;4.80;;;2.20;;
25758;SDS011;13604;52.496;13.456;2022-08-05T13:43:36;4.63;;;2.28;;
25758;SDS011;13604;52.496;13.456;2022-08-05T13:46:02;2.13;;;1.58;;
25758;SDS011;13604;52.496;13.456;2022-08-05T13:48:27;3.03;;;2.07;;
25758;SDS011;13604;52.496;13.456;2022-08-05T13:50:52;3.93;;;2.07;;
25758;SDS011;13604;52.496;13.456;2022-08-05T13:53:18;2.72;;;2.28;;
25758;SDS011;13604;52.496;13.456;2022-08-05T13:55:43;2.77;;;2.00;;
25758;SDS011;13604;52.496;13.456;2022-08-05T13:58:08;5.83;;;2.60;;
25758;SDS011;13604;52.496;13.456;2022-08-05T14:00:34;4.72;;;2.20;;
25758;SDS011;13604;52.496;13.456;2022-08-05T14:03:00;8.00;;;2.13;;
25758;SDS011;13604;52.496;13.456;2022-08-05T14:05:25;3.60;;;2.03;;
25758;SDS011;13604;52.496;13.456;2022-08-05T14:07:51;3.13;;;2.40;;
25758;SDS011;13604;52.496;13.456;2022-08-05T14:10:18;3.05;;;2.67;;
25758;SDS011;13604;52.496;13.456;2022-08-05T14:12:48;3.33;;;2.30;;
25758;SDS011;13604;52.496;13.456;2022-08-05T14:15:13;3.80;;;2.42;;
25758;SDS011;13604;52.496;13.456;2022-08-05T14:17:39;6.07;;;2.67;;
25758;SDS011;13604;52.496;13.456;2022-08-05T14:20:05;3.65;;;2.13;;
25758;SDS011;13604;52.496;13.456;2022-08-05T14:22:31;4.07;;;2.50;;
25758;SDS011;13604;52.496;13.456;2022-08-05T14:24:57;2.35;;;2.15;;
25758;SDS011;13604;52.496;13.456;2022-08-05T14:27:22;3.05;;;2.30;;
25758;SDS011;13604;52.496;13.456;2022-08-05T14:29:47;3.40;;;2.22;;
25758;SDS011;13604;52.496;13.456;2022-08-05T14:32:13;2.60;;;2.40;;
25758;SDS011;13604;52.496;13.456;2022-08-05T14:34:38;2.30;;;2.10;;
25758;SDS011;13604;52.496;13.456;2022-08-05T14:37:04;5.82;;;2.60;;
25758;SDS011;13604;52.496;13.456;2022-08-05T14:39:29;2.60;;;2.40;;
25758;SDS011;13604;52.496;13.456;2022-08-05T14:41:55;2.70;;;2.30;;
25758;SDS011;13604;52.496;13.456;2022-08-05T14:44:21;4.90;;;3.05;;
25758;SDS011;13604;52.496;13.456;2022-08-05T14:46:46;5.10;;;2.83;;
25758;SDS011;13604;52.496;13.456;2022-08-05T14:49:11;3.90;;;2.97;;
25758;SDS011;13604;52.496;13.456;2022-08-05T14:51:37;3.20;;;2.72;;
25758;SDS011;13604;52.496;13.456;2022-08-05T14:54:04;5.20;;;3.30;;
25758;SDS011;13604;52.496;13.456;2022-08-05T14:56:30;7.50;;;3.30;;
25758;SDS011;13604;52.496;13.456;2022-08-05T14:58:55;4.45;;;2.90;;
25758;SDS011;13604;52.496;13.456;2022-08-05T15:01:21;3.63;;;2.80;;
25758;SDS011;13604;52.496;13.456;2022-08-05T15:03:46;4.47;;;3.20;;
25758;SDS011;13604;52.496;13.456;2022-08-05T15:06:11;3.72;;;3.03;;
25758;SDS011;13604;52.496;13.456;2022-08-05T15:08:36;4.72;;;4.20;;
25758;SDS011;13604;52.496;13.456;2022-08-05T15:11:02;5.97;;;4.15;;
25758;SDS011;13604;52.496;13.456;2022-08-05T15:13:27;4.63;;;4.03;;
25758;SDS011;13604;52.496;13.456;2022-08-05T15:15:53;5.15;;;3.45;;